createdAt,value
2017-09-02T00:04:28.079Z,14.30
2017-09-02T00:09:24.427Z,14.28
2017-09-02T00:14:20.065Z,14.29
2017-09-02T00:19:17.678Z,14.25
2017-09-02T00:24:13.101Z,14.32
2017-09-02T00:29:09.854Z,14.29
2017-09-02T00:34:06.755Z,14.26
2017-09-02T00:39:02.183Z,14.17
2017-09-02T00:43:58.951Z,14.33
2017-09-02T00:48:54.689Z,14.20
2017-09-02T00:53:50.492Z,14.14
2017-09-02T00:58:46.496Z,14.00
2017-09-02T01:03:42.141Z,13.90
2017-09-02T01:08:38.897Z,14.00
2017-09-02T01:13:34.841Z,14.11
2017-09-02T01:18:30.815Z,14.07
2017-09-02T01:23:27.377Z,14.18
2017-09-02T01:28:23.886Z,14.20
2017-09-02T01:33:20.669Z,14.20
2017-09-02T01:38:16.275Z,14.17
2017-09-02T01:43:12.046Z,14.32
2017-09-02T01:48:09.041Z,14.28
2017-09-02T01:53:04.957Z,14.26
2017-09-02T01:58:01.297Z,14.17
2017-09-02T02:02:57.134Z,14.12
2017-09-02T02:07:53.018Z,14.14
2017-09-02T02:12:48.731Z,14.07
2017-09-02T02:17:46.027Z,14.07
2017-09-02T02:22:41.957Z,14.08
2017-09-02T02:27:38.804Z,14.07
2017-09-02T02:32:34.497Z,14.10
2017-09-02T02:37:30.206Z,14.07
2017-09-02T02:42:26.273Z,13.97
2017-09-02T02:47:22.516Z,14.20
2017-09-02T02:52:18.218Z,14.15
2017-09-02T02:57:15.553Z,14.07
2017-09-02T03:02:11.608Z,13.99
2017-09-02T03:07:07.549Z,14.03
2017-09-02T03:12:05.205Z,13.92
2017-09-02T03:17:02.298Z,13.97
2017-09-02T03:21:58.316Z,13.97
2017-09-02T03:26:54.274Z,14.00
2017-09-02T03:31:50.150Z,13.89
2017-09-02T03:36:47.704Z,13.81
2017-09-02T03:41:43.257Z,13.92
2017-09-02T03:46:39.231Z,13.74
2017-09-02T03:51:34.929Z,13.85
2017-09-02T03:56:30.794Z,13.86
2017-09-02T04:01:26.802Z,13.86
2017-09-02T04:06:22.319Z,13.67
2017-09-02T04:11:18.709Z,13.75
2017-09-02T04:16:14.424Z,13.63
2017-09-02T04:21:10.245Z,13.59
2017-09-02T04:26:05.963Z,13.56
2017-09-02T04:31:02.719Z,13.50
2017-09-02T04:35:58.878Z,13.46
2017-09-02T04:40:54.334Z,13.37
2017-09-02T04:45:50.412Z,13.47
2017-09-02T04:50:46.333Z,13.41
2017-09-02T04:55:43.396Z,13.30
2017-09-02T05:00:39.925Z,13.31
2017-09-02T05:05:35.489Z,13.35
2017-09-02T05:10:31.351Z,13.31
2017-09-02T05:15:27.390Z,13.42
2017-09-02T05:20:23.891Z,13.35
2017-09-02T05:25:19.944Z,13.33
2017-09-02T05:30:15.666Z,13.38
2017-09-02T05:35:11.923Z,13.19
2017-09-02T05:40:07.877Z,13.39
2017-09-02T05:45:04.386Z,13.41
2017-09-02T05:50:00.045Z,13.62
2017-09-02T05:54:56.439Z,13.68
2017-09-02T05:59:52.426Z,13.56
2017-09-02T06:04:49.377Z,13.77
2017-09-02T06:09:45.068Z,13.74
2017-09-02T06:14:41.032Z,13.90
2017-09-02T06:19:37.201Z,14.23
2017-09-02T06:24:34.070Z,14.40
2017-09-02T06:29:30.996Z,14.11
2017-09-02T06:34:27.796Z,14.18
2017-09-02T06:39:23.095Z,14.18
2017-09-02T06:44:20.596Z,14.30
2017-09-02T06:49:16.068Z,14.36
2017-09-02T06:54:12.095Z,14.48
2017-09-02T06:59:08.417Z,14.72
2017-09-02T07:04:04.393Z,14.82
2017-09-02T07:09:00.391Z,14.72
2017-09-02T07:13:56.619Z,14.54
2017-09-02T07:18:52.429Z,14.73
2017-09-02T07:23:48.370Z,14.94
2017-09-02T07:28:44.269Z,14.92
2017-09-02T07:33:41.325Z,14.92
2017-09-02T07:38:36.599Z,15.06
2017-09-02T07:43:33.194Z,15.29
2017-09-02T07:48:30.140Z,15.65
2017-09-02T07:53:26.297Z,15.73
2017-09-02T07:58:22.492Z,15.97
2017-09-02T08:03:19.743Z,16.01
2017-09-02T08:08:16.269Z,16.46
2017-09-02T08:13:13.166Z,17.05
2017-09-02T08:18:09.931Z,17.94
2017-09-02T08:23:07.593Z,18.20
2017-09-02T08:28:03.334Z,17.82
2017-09-02T08:32:59.171Z,17.46
2017-09-02T08:37:54.701Z,17.20
2017-09-02T08:42:50.439Z,17.30
2017-09-02T08:47:46.141Z,17.33
2017-09-02T08:52:41.848Z,17.45
2017-09-02T08:57:37.937Z,17.65
2017-09-02T09:02:34.153Z,17.79
2017-09-02T09:07:30.228Z,17.49
2017-09-02T09:12:25.833Z,17.42
2017-09-02T09:17:22.107Z,17.65
2017-09-02T09:22:18.241Z,17.80
2017-09-02T09:27:15.401Z,17.90
2017-09-02T09:32:11.843Z,18.18
2017-09-02T09:37:09.800Z,18.18
2017-09-02T09:42:05.322Z,18.38
2017-09-02T09:47:01.318Z,18.68
2017-09-02T09:51:57.879Z,19.08
2017-09-02T09:56:54.979Z,18.99
2017-09-02T10:01:50.842Z,18.96
2017-09-02T10:06:47.778Z,18.99
2017-09-02T10:11:44.027Z,19.64
2017-09-02T10:16:42.229Z,19.07
2017-09-02T10:21:39.271Z,18.71
2017-09-02T10:26:34.979Z,19.15
2017-09-02T10:31:33.880Z,19.64
2017-09-02T10:36:30.671Z,20.48
2017-09-02T10:41:28.764Z,21.39
2017-09-02T10:46:26.665Z,21.70
2017-09-02T10:51:23.533Z,21.39
2017-09-02T10:56:21.011Z,22.08
2017-09-02T11:01:14.390Z,20.81
2017-09-02T11:06:08.599Z,20.29
2017-09-02T11:11:03.472Z,19.74
2017-09-02T11:16:01.581Z,19.94
2017-09-02T11:20:56.343Z,20.25
2017-09-02T11:25:54.358Z,21.06
2017-09-02T11:30:52.226Z,21.62
2017-09-02T11:35:49.647Z,22.63
2017-09-02T11:40:46.795Z,21.80
2017-09-02T11:45:43.129Z,22.54
2017-09-02T11:55:38.976Z,22.28
2017-09-02T12:00:35.593Z,21.02
2017-09-02T12:05:29.648Z,20.40
2017-09-02T12:10:23.131Z,20.55
2017-09-02T12:15:18.215Z,20.24
2017-09-02T12:20:13.374Z,20.00
2017-09-02T12:25:08.769Z,20.19
2017-09-02T12:30:05.718Z,20.48
2017-09-02T12:35:01.710Z,19.84
2017-09-02T12:39:56.898Z,19.58
2017-09-02T12:44:52.207Z,19.51
2017-09-02T12:49:48.954Z,19.63
2017-09-02T12:54:44.471Z,19.84
2017-09-02T12:59:40.545Z,20.18
2017-09-02T13:04:36.902Z,20.44
2017-09-02T13:09:34.543Z,20.39
2017-09-02T13:14:32.032Z,20.29
2017-09-02T13:19:27.312Z,19.74
2017-09-02T13:24:22.849Z,19.47
2017-09-02T13:29:18.439Z,19.40
2017-09-02T13:34:15.006Z,19.39
2017-09-02T13:39:11.629Z,19.39
2017-09-02T13:44:07.502Z,19.71
2017-09-02T13:49:04.579Z,19.81
2017-09-02T13:54:02.124Z,19.94
2017-09-02T13:58:57.910Z,20.26
2017-09-02T14:03:54.199Z,20.48
2017-09-02T14:08:50.400Z,20.75
2017-09-02T14:13:46.483Z,20.90
2017-09-02T14:18:44.581Z,20.47
2017-09-02T14:23:39.964Z,20.28
2017-09-02T14:28:35.644Z,20.22
2017-09-02T14:33:31.859Z,19.95
2017-09-02T14:38:27.633Z,20.00
2017-09-02T14:43:23.482Z,19.92
2017-09-02T14:48:20.017Z,20.16
2017-09-02T14:53:15.915Z,20.19
2017-09-02T14:58:12.050Z,19.96
2017-09-02T15:03:08.017Z,19.64
2017-09-02T15:08:03.599Z,19.55
2017-09-02T15:13:00.115Z,19.34
2017-09-02T15:17:56.764Z,19.47
2017-09-02T15:22:52.490Z,19.55
2017-09-02T15:27:48.353Z,19.36
2017-09-02T15:32:45.291Z,19.59
2017-09-02T15:37:40.886Z,19.85
2017-09-02T15:42:38.142Z,19.81
2017-09-02T15:47:33.777Z,19.99
2017-09-02T15:52:29.417Z,19.86
2017-09-02T15:57:25.256Z,19.45
2017-09-02T16:02:21.027Z,18.84
2017-09-02T16:07:16.825Z,18.43
2017-09-02T16:12:12.448Z,18.55
2017-09-02T16:17:08.037Z,18.55
2017-09-02T16:22:04.347Z,18.52
2017-09-02T16:27:01.280Z,18.70
2017-09-02T16:31:56.915Z,18.88
2017-09-02T16:36:52.748Z,19.02
2017-09-02T16:41:48.922Z,18.92
2017-09-02T16:46:44.615Z,19.18
2017-09-02T16:51:40.609Z,19.12
2017-09-02T16:56:36.661Z,19.37
2017-09-02T17:01:32.644Z,19.40
2017-09-02T17:06:29.586Z,19.49
2017-09-02T17:11:25.394Z,19.00
2017-09-02T17:16:21.590Z,18.70
2017-09-02T17:21:18.222Z,18.74
2017-09-02T17:26:14.968Z,18.58
2017-09-02T17:31:10.857Z,18.44
2017-09-02T17:36:06.525Z,18.35
2017-09-02T17:41:02.764Z,17.92
2017-09-02T17:45:58.422Z,17.48
2017-09-02T17:50:54.004Z,17.31
2017-09-02T17:55:50.760Z,17.24
2017-09-02T18:00:46.269Z,17.08
2017-09-02T18:05:42.044Z,16.93
2017-09-02T18:10:37.577Z,16.75
2017-09-02T18:15:33.096Z,16.54
2017-09-02T18:20:29.309Z,16.60
2017-09-02T18:25:24.879Z,16.56
2017-09-02T18:30:20.905Z,16.51
2017-09-02T18:35:17.878Z,16.33
2017-09-02T18:40:14.122Z,16.31
2017-09-02T18:45:10.834Z,16.20
2017-09-02T18:50:06.314Z,16.23
2017-09-02T18:55:02.381Z,16.09
2017-09-02T18:59:59.150Z,16.10
2017-09-02T19:04:54.702Z,16.05
2017-09-02T19:09:50.331Z,15.88
2017-09-02T19:14:46.385Z,15.77
2017-09-02T19:19:43.257Z,15.70
2017-09-02T19:24:39.416Z,15.58
2017-09-02T19:29:36.265Z,15.59
2017-09-02T19:34:31.544Z,15.33
2017-09-02T19:39:27.100Z,15.40
2017-09-02T19:44:22.871Z,15.51
2017-09-02T19:49:18.685Z,15.37
2017-09-02T19:54:14.574Z,15.40
2017-09-02T19:59:12.018Z,15.18
2017-09-02T20:04:08.213Z,15.11
2017-09-02T20:09:04.898Z,14.99
2017-09-02T20:14:00.526Z,14.96
2017-09-02T20:18:57.242Z,15.22
2017-09-02T20:23:53.825Z,14.91
2017-09-02T20:28:49.612Z,14.88
2017-09-02T20:33:46.397Z,14.91
2017-09-02T20:38:41.785Z,14.65
2017-09-02T20:43:37.140Z,14.48
2017-09-02T20:48:34.234Z,14.44
2017-09-02T20:53:31.075Z,14.47
2017-09-02T20:58:26.397Z,14.36
2017-09-02T21:03:23.553Z,14.40
2017-09-02T21:08:19.928Z,14.41
2017-09-02T21:13:16.452Z,14.33
2017-09-02T21:18:12.908Z,14.33
2017-09-02T21:23:09.435Z,14.20
2017-09-02T21:28:04.961Z,14.10
2017-09-02T21:33:01.760Z,14.20
2017-09-02T21:37:56.919Z,14.47
2017-09-02T21:42:52.990Z,14.33
2017-09-02T21:47:50.281Z,14.26
2017-09-02T21:52:45.766Z,14.32
2017-09-02T21:57:42.189Z,14.33
2017-09-02T22:02:38.784Z,14.23
2017-09-02T22:07:34.547Z,13.92
2017-09-02T22:12:30.225Z,13.90
2017-09-02T22:17:25.984Z,13.78
2017-09-02T22:22:21.730Z,13.62
2017-09-02T22:27:17.520Z,13.67
2017-09-02T22:32:13.218Z,13.47
2017-09-02T22:37:09.160Z,13.50
2017-09-02T22:42:04.978Z,13.39
2017-09-02T22:47:00.787Z,13.38
2017-09-02T22:51:56.641Z,13.53
2017-09-02T22:56:52.316Z,13.79
2017-09-02T23:01:49.334Z,13.53
2017-09-02T23:06:44.774Z,13.52
2017-09-02T23:11:40.447Z,13.30
2017-09-02T23:16:36.246Z,13.23
2017-09-02T23:21:33.151Z,13.19
2017-09-02T23:26:30.644Z,13.18
2017-09-02T23:31:25.791Z,13.18
2017-09-02T23:36:21.541Z,13.27
2017-09-02T23:41:17.561Z,13.15
2017-09-02T23:46:13.439Z,12.94
2017-09-02T23:51:09.281Z,12.79
2017-09-02T23:56:05.130Z,12.80
